Time;durP1;ratioP1;P1;durP2;ratioP2;P2;SDS_P1;SDS_P2;PMS_P1;PMS_P2;Temp;Humidity;BMP_temperature;BMP_pressure;BME280_temperature;BME280_humidity;BME280_pressure;Samples;Min_cycle;Max_cycle;Signal;HPM_P1;HPM_P2
2023/11/13 00:02:12;;;;;;;3.05;2.22;;;20.30;40.90;;;;;;5031358;28;20033;-53
2023/11/13 00:04:38;;;;;;;3.25;2.40;;;20.30;40.90;;;;;;5031460;28;20034;-57
2023/11/13 00:07:04;;;;;;;3.63;2.50;;;20.30;40.90;;;;;;5026673;28;20035;-54
2023/11/13 00:09:30;;;;;;;3.42;2.03;;;20.30;40.90;;;;;;5034957;28;20021;-59
2023/11/13 00:11:56;;;;;;;3.17;1.98;;;20.30;40.90;;;;;;5035839;28;20079;-56
2023/11/13 00:14:22;;;;;;;2.92;2.13;;;20.30;40.90;;;;;;5034703;28;20420;-55
2023/11/13 00:16:48;;;;;;;3.88;2.33;;;20.30;40.90;;;;;;5031902;28;20061;-56
2023/11/13 00:19:16;;;;;;;3.30;2.03;;;20.20;40.80;;;;;;5035769;28;20041;-55
2023/11/13 00:21:43;;;;;;;3.00;2.20;;;20.30;40.90;;;;;;5033472;28;20045;-57
2023/11/13 00:24:09;;;;;;;3.53;2.15;;;20.20;40.80;;;;;;5020993;28;20498;-58
2023/11/13 00:26:35;;;;;;;4.60;2.28;;;20.20;40.80;;;;;;5034118;28;20036;-55
2023/11/13 00:29:02;;;;;;;3.10;2.22;;;20.20;40.80;;;;;;5034124;28;20029;-55
2023/11/13 00:31:28;;;;;;;2.45;1.75;;;20.20;40.80;;;;;;5034325;28;20037;-58
2023/11/13 00:33:54;;;;;;;5.15;2.70;;;20.20;40.70;;;;;;5033326;28;20044;-59
2023/11/13 00:36:20;;;;;;;2.80;1.98;;;20.20;40.80;;;;;;5024475;28;20112;-56
2023/11/13 00:38:46;;;;;;;2.50;1.92;;;20.20;40.70;;;;;;5037847;28;20029;-55
2023/11/13 00:41:13;;;;;;;2.70;2.10;;;20.20;40.70;;;;;;5037867;28;20040;-60
2023/11/13 00:43:40;;;;;;;3.28;1.90;;;20.20;40.60;;;;;;5037572;28;20107;-58
2023/11/13 00:46:07;;;;;;;2.17;1.63;;;20.20;40.60;;;;;;5039887;28;20033;-58
2023/11/13 00:48:33;;;;;;;3.97;2.03;;;20.20;40.60;;;;;;5044131;28;20029;-57
2023/11/13 00:51:02;;;;;;;3.13;2.00;;;20.20;40.60;;;;;;5020148;28;20400;-53
2023/11/13 00:53:35;;;;;;;2.67;1.83;;;20.20;40.60;;;;;;5047243;28;21145;-55
2023/11/13 00:56:01;;;;;;;2.58;1.70;;;20.20;40.60;;;;;;5039579;28;20030;-54
2023/11/13 00:58:27;;;;;;;3.03;1.88;;;20.20;40.60;;;;;;5057710;28;20036;-57
2023/11/13 01:00:53;;;;;;;2.10;1.80;;;20.20;40.60;;;;;;5039871;28;20047;-55
2023/11/13 01:03:19;;;;;;;2.92;1.88;;;20.10;40.50;;;;;;5021596;28;20116;-55
2023/11/13 01:05:45;;;;;;;2.00;1.63;;;20.10;40.60;;;;;;5043615;28;20037;-54
2023/11/13 01:08:11;;;;;;;2.70;1.88;;;20.10;40.50;;;;;;5019655;28;20021;-53
2023/11/13 01:10:36;;;;;;;2.38;1.80;;;20.10;40.50;;;;;;5033672;28;20388;-57
2023/11/13 01:13:03;;;;;;;2.58;2.00;;;20.20;40.60;;;;;;5014938;28;20128;-54
2023/11/13 01:15:29;;;;;;;3.17;1.77;;;20.10;40.50;;;;;;5015616;28;20416;-55
2023/11/13 01:17:54;;;;;;;2.40;1.67;;;20.10;40.50;;;;;;5030109;28;20037;-58
2023/11/13 01:20:23;;;;;;;3.05;1.60;;;20.20;40.60;;;;;;5040833;28;20108;-56
2023/11/13 01:22:49;;;;;;;2.80;1.92;;;20.10;40.50;;;;;;5032524;28;20061;-54
2023/11/13 01:25:15;;;;;;;3.35;1.88;;;20.10;40.50;;;;;;5051086;28;20486;-54
2023/11/13 01:27:41;;;;;;;2.75;1.65;;;20.10;40.50;;;;;;5017138;28;20026;-57
2023/11/13 01:30:09;;;;;;;2.45;1.75;;;20.10;40.50;;;;;;5016682;28;20516;-58
2023/11/13 01:32:36;;;;;;;2.08;1.58;;;20.10;40.50;;;;;;5035860;28;20060;-59
2023/11/13 01:35:03;;;;;;;1.95;1.50;;;20.10;40.50;;;;;;5034961;28;20035;-60
2023/11/13 01:37:30;;;;;;;1.80;1.45;;;20.10;40.50;;;;;;5030738;28;20202;-59
2023/11/13 01:39:56;;;;;;;2.50;1.77;;;20.10;40.50;;;;;;5034819;28;21453;-56
2023/11/13 01:42:21;;;;;;;1.90;1.70;;;20.10;40.40;;;;;;5015101;28;20068;-56
2023/11/13 01:44:47;;;;;;;2.22;1.50;;;20.10;40.40;;;;;;5020562;28;20087;-56
2023/11/13 01:47:14;;;;;;;2.38;1.90;;;20.10;40.40;;;;;;5032712;28;20033;-55
2023/11/13 01:49:41;;;;;;;3.35;1.90;;;20.10;40.50;;;;;;5015325;28;20124;-58
2023/11/13 01:52:08;;;;;;;2.35;1.73;;;20.10;40.40;;;;;;5031788;28;20104;-55
2023/11/13 01:54:34;;;;;;;2.80;1.80;;;20.10;40.40;;;;;;5031666;28;20041;-57
2023/11/13 01:57:05;;;;;;;3.88;1.63;;;20.10;40.40;;;;;;5032883;28;20154;-54
2023/11/13 01:59:33;;;;;;;2.55;1.75;;;20.00;40.40;;;;;;5013910;28;20025;-56
2023/11/13 02:02:02;;;;;;;3.05;1.80;;;20.10;40.40;;;;;;5015925;28;20025;-51
2023/11/13 02:04:28;;;;;;;2.22;1.67;;;20.10;40.40;;;;;;5046598;28;20025;-55
2023/11/13 02:06:54;;;;;;;2.35;1.63;;;20.00;40.40;;;;;;5013284;28;20371;-56
2023/11/13 02:09:20;;;;;;;2.65;1.80;;;20.00;40.60;;;;;;5036206;28;20087;-56
2023/11/13 02:11:47;;;;;;;2.50;1.67;;;20.00;40.40;;;;;;5015003;28;20049;-54
2023/11/13 02:14:14;;;;;;;2.30;1.58;;;20.00;40.40;;;;;;5014915;28;20471;-53
2023/11/13 02:16:40;;;;;;;3.55;1.90;;;20.00;40.40;;;;;;5011374;28;20057;-56
2023/11/13 02:19:06;;;;;;;2.50;1.60;;;20.00;40.40;;;;;;5012320;28;20029;-56
2023/11/13 02:21:34;;;;;;;2.50;1.60;;;20.00;40.40;;;;;;5034002;28;20033;-56
2023/11/13 02:24:01;;;;;;;1.80;1.63;;;20.10;40.40;;;;;;5020065;28;20026;-59
2023/11/13 02:26:27;;;;;;;3.08;1.60;;;20.00;40.40;;;;;;5032121;28;20037;-54
2023/11/13 02:28:53;;;;;;;2.63;1.52;;;20.00;40.40;;;;;;5016268;28;20035;-59
2023/11/13 02:31:19;;;;;;;1.80;1.50;;;20.00;40.40;;;;;;5031411;28;20048;-57
2023/11/13 02:33:45;;;;;;;3.13;1.60;;;20.00;40.40;;;;;;5015537;28;20084;-59
2023/11/13 02:36:11;;;;;;;3.53;1.70;;;20.00;40.40;;;;;;5038772;28;20029;-57
2023/11/13 02:38:37;;;;;;;2.15;1.50;;;20.00;40.40;;;;;;5054739;28;20159;-57
2023/11/13 02:41:03;;;;;;;3.38;1.80;;;20.00;40.40;;;;;;5055163;28;20041;-55
2023/11/13 02:43:29;;;;;;;1.60;1.30;;;20.00;40.40;;;;;;5055611;28;20032;-54
2023/11/13 02:45:55;;;;;;;2.42;1.42;;;20.00;40.40;;;;;;5051811;28;20024;-56
2023/11/13 02:48:20;;;;;;;2.38;1.80;;;20.00;40.40;;;;;;5019500;28;20106;-55
2023/11/13 02:50:46;;;;;;;2.45;1.50;;;20.00;40.40;;;;;;5037801;28;20191;-59
2023/11/13 02:53:13;;;;;;;1.63;1.40;;;20.00;40.40;;;;;;5054187;28;20352;-57
2023/11/13 02:55:39;;;;;;;2.88;1.60;;;20.00;40.40;;;;;;5036672;28;20040;-54
2023/11/13 02:58:05;;;;;;;2.42;1.50;;;20.00;40.40;;;;;;5035261;28;20110;-55
2023/11/13 03:00:33;;;;;;;2.15;1.50;;;20.00;40.40;;;;;;5054170;28;20032;-58
2023/11/13 03:02:59;;;;;;;2.28;1.50;;;20.00;40.40;;;;;;5037483;28;20351;-56
2023/11/13 03:05:25;;;;;;;2.67;1.67;;;20.00;40.40;;;;;;5035495;28;20029;-57
2023/11/13 03:07:51;;;;;;;1.92;1.40;;;19.90;40.40;;;;;;5012791;28;20032;-57
2023/11/13 03:10:17;;;;;;;2.03;1.52;;;20.00;40.40;;;;;;5013977;28;20040;-54
2023/11/13 03:12:43;;;;;;;1.80;1.50;;;20.00;40.40;;;;;;5013550;28;20029;-55
2023/11/13 03:15:12;;;;;;;3.00;1.70;;;20.00;40.40;;;;;;5014021;28;20462;-57
2023/11/13 03:17:38;;;;;;;2.13;1.23;;;20.00;40.40;;;;;;5025203;28;20032;-60
2023/11/13 03:20:06;;;;;;;2.22;1.48;;;20.00;40.40;;;;;;5031967;28;20112;-55
2023/11/13 03:22:33;;;;;;;1.67;1.27;;;20.00;40.40;;;;;;5031908;28;20108;-59
2023/11/13 03:24:59;;;;;;;1.90;1.40;;;20.00;40.40;;;;;;5037373;28;20049;-56
2023/11/13 03:27:26;;;;;;;1.70;1.20;;;19.90;40.40;;;;;;5032358;28;20095;-54
2023/11/13 03:29:52;;;;;;;1.65;1.40;;;19.90;40.40;;;;;;5030875;28;20025;-53
2023/11/13 03:32:18;;;;;;;2.33;1.38;;;19.90;40.40;;;;;;5045346;28;20022;-55
2023/11/13 03:34:44;;;;;;;2.58;1.60;;;19.90;40.40;;;;;;5030202;28;20095;-57
2023/11/13 03:37:10;;;;;;;2.22;1.48;;;19.90;40.40;;;;;;5030790;28;20032;-55
2023/11/13 03:39:36;;;;;;;2.10;1.50;;;19.90;40.50;;;;;;4998270;28;20025;-57
2023/11/13 03:42:02;;;;;;;2.92;1.40;;;19.90;40.50;;;;;;5028738;28;20037;-55
2023/11/13 03:44:28;;;;;;;1.83;1.42;;;19.90;40.50;;;;;;5037714;28;20060;-55
2023/11/13 03:46:54;;;;;;;2.33;1.73;;;19.90;40.50;;;;;;5033487;28;20049;-58
2023/11/13 03:49:21;;;;;;;2.42;1.60;;;19.90;40.50;;;;;;5035362;28;20540;-58
2023/11/13 03:51:47;;;;;;;2.20;1.60;;;19.90;40.50;;;;;;5034862;28;20034;-57
2023/11/13 03:54:13;;;;;;;2.83;1.50;;;19.90;40.40;;;;;;5016943;28;20092;-59
2023/11/13 03:56:40;;;;;;;2.13;1.48;;;19.90;40.50;;;;;;5034447;28;20057;-59
2023/11/13 03:59:06;;;;;;;2.03;1.48;;;19.90;40.50;;;;;;5019526;28;20025;-57
2023/11/13 04:01:32;;;;;;;3.05;1.55;;;19.90;40.50;;;;;;5015911;28;20041;-56
2023/11/13 04:03:58;;;;;;;2.17;1.52;;;19.90;40.50;;;;;;5016419;28;20041;-60
2023/11/13 04:06:24;;;;;;;1.80;1.33;;;19.90;40.50;;;;;;5031835;28;20055;-56
2023/11/13 04:08:50;;;;;;;2.67;1.58;;;19.90;40.50;;;;;;5044930;28;20091;-59
2023/11/13 04:11:16;;;;;;;1.73;1.25;;;19.90;40.50;;;;;;5037369;28;20029;-57
2023/11/13 04:13:44;;;;;;;1.70;1.45;;;19.90;40.50;;;;;;5013711;28;20458;-57
2023/11/13 04:16:10;;;;;;;2.33;1.27;;;19.90;40.50;;;;;;5014157;28;20038;-58
2023/11/13 04:18:36;;;;;;;2.40;1.27;;;19.80;40.50;;;;;;5027300;28;20018;-57
2023/11/13 04:21:04;;;;;;;2.30;1.50;;;19.80;40.50;;;;;;5016437;28;20088;-57
2023/11/13 04:23:30;;;;;;;1.73;1.27;;;19.90;40.50;;;;;;5019393;28;20060;-53
2023/11/13 04:25:56;;;;;;;2.50;1.77;;;19.80;40.50;;;;;;5015758;28;20061;-60
2023/11/13 04:28:22;;;;;;;1.77;1.23;;;19.80;40.50;;;;;;5015204;28;20022;-57
2023/11/13 04:30:48;;;;;;;2.45;1.50;;;19.80;40.50;;;;;;5045507;28;20030;-57
2023/11/13 04:33:14;;;;;;;2.13;1.58;;;19.80;40.60;;;;;;5016388;28;20030;-57
2023/11/13 04:35:40;;;;;;;2.53;1.60;;;19.80;40.60;;;;;;5018579;28;20120;-52
2023/11/13 04:38:06;;;;;;;1.88;1.20;;;19.80;40.60;;;;;;5017706;28;20366;-57
2023/11/13 04:40:32;;;;;;;1.75;1.15;;;19.80;40.60;;;;;;5037727;28;20036;-56
2023/11/13 04:43:01;;;;;;;1.92;1.15;;;19.80;40.70;;;;;;5036797;28;20044;-59
2023/11/13 04:45:27;;;;;;;2.67;1.80;;;19.80;40.70;;;;;;5022429;28;20026;-57
2023/11/13 04:47:54;;;;;;;1.85;1.65;;;19.80;40.70;;;;;;5026926;28;20511;-56
2023/11/13 04:50:20;;;;;;;2.30;1.38;;;19.80;40.70;;;;;;5035093;28;20456;-53
2023/11/13 04:52:46;;;;;;;2.42;1.52;;;19.80;40.80;;;;;;5037559;28;20034;-57
2023/11/13 04:55:12;;;;;;;1.88;1.30;;;19.80;40.80;;;;;;5037072;28;20107;-56
2023/11/13 04:57:39;;;;;;;2.65;1.38;;;19.80;40.80;;;;;;5037277;28;20350;-57
2023/11/13 05:00:06;;;;;;;1.95;1.30;;;19.80;40.80;;;;;;5035445;28;20029;-54
2023/11/13 05:02:37;;;;;;;1.70;1.35;;;19.80;40.90;;;;;;5032024;28;20097;-55
2023/11/13 05:05:11;;;;;;;1.92;1.40;;;19.80;40.90;;;;;;5017743;28;20035;-60
2023/11/13 05:07:38;;;;;;;1.73;1.20;;;19.80;40.90;;;;;;5011845;28;20353;-55
2023/11/13 05:10:05;;;;;;;2.15;1.40;;;19.80;40.90;;;;;;5013975;28;20095;-59
2023/11/13 05:12:31;;;;;;;1.92;1.40;;;19.80;41.00;;;;;;5012978;28;20037;-56
2023/11/13 05:14:57;;;;;;;2.15;1.40;;;19.80;41.00;;;;;;5032574;28;20029;-55
2023/11/13 05:17:23;;;;;;;2.28;1.35;;;19.80;41.00;;;;;;5033482;28;20030;-54
2023/11/13 05:19:49;;;;;;;1.52;1.13;;;19.80;41.00;;;;;;5035817;28;20159;-59
2023/11/13 05:22:15;;;;;;;1.63;1.10;;;19.70;41.00;;;;;;5015893;28;20021;-55
2023/11/13 05:24:41;;;;;;;1.45;1.00;;;19.70;41.00;;;;;;5039341;28;20029;-54
2023/11/13 05:27:06;;;;;;;1.73;1.40;;;19.70;41.10;;;;;;5035377;28;20029;-57
2023/11/13 05:29:32;;;;;;;2.03;1.27;;;19.70;41.10;;;;;;5032064;28;20120;-57
2023/11/13 05:31:58;;;;;;;2.33;1.33;;;19.80;41.20;;;;;;5032305;28;20057;-58
2023/11/13 05:34:24;;;;;;;2.25;1.52;;;19.70;41.20;;;;;;5032274;28;20489;-54
2023/11/13 05:36:50;;;;;;;2.17;1.30;;;19.70;41.20;;;;;;5031763;28;20117;-55
2023/11/13 05:39:16;;;;;;;2.33;1.40;;;19.70;41.20;;;;;;5034664;28;20108;-52
2023/11/13 05:41:42;;;;;;;1.50;0.98;;;19.70;41.30;;;;;;5033451;28;20171;-56
2023/11/13 05:44:08;;;;;;;1.85;1.20;;;19.70;41.30;;;;;;5014572;28;20422;-53
2023/11/13 05:46:34;;;;;;;1.85;1.33;;;19.70;41.30;;;;;;5031547;28;20322;-56
2023/11/13 05:49:00;;;;;;;1.88;1.27;;;19.70;41.30;;;;;;5037556;28;20037;-58
2023/11/13 05:51:26;;;;;;;1.35;1.13;;;19.70;41.40;;;;;;5032575;28;20028;-55
2023/11/13 05:53:51;;;;;;;2.40;1.40;;;19.70;41.40;;;;;;5032492;28;20025;-52
2023/11/13 05:56:18;;;;;;;1.83;1.27;;;19.70;41.50;;;;;;5014242;28;20040;-58
2023/11/13 05:58:44;;;;;;;1.92;1.20;;;19.70;41.50;;;;;;5036594;28;20364;-59
2023/11/13 06:01:10;;;;;;;2.65;1.40;;;19.70;41.50;;;;;;5033158;28;20036;-56
2023/11/13 06:03:36;;;;;;;2.15;1.13;;;19.70;41.60;;;;;;5032169;28;20032;-58
2023/11/13 06:06:06;;;;;;;1.85;1.30;;;19.70;41.60;;;;;;5014697;28;20026;-60
2023/11/13 06:08:32;;;;;;;2.25;1.30;;;19.70;41.60;;;;;;4995157;28;20045;-59
2023/11/13 06:10:58;;;;;;;2.33;1.25;;;19.70;41.60;;;;;;5032238;28;20029;-56
2023/11/13 06:13:25;;;;;;;1.73;1.20;;;19.70;41.70;;;;;;5013708;28;20441;-56
2023/11/13 06:15:51;;;;;;;1.73;1.15;;;19.60;41.60;;;;;;5034798;28;20045;-61
2023/11/13 06:18:17;;;;;;;1.55;1.20;;;19.70;41.70;;;;;;5032098;28;20029;-58
2023/11/13 06:20:44;;;;;;;1.65;1.42;;;19.70;41.80;;;;;;5014409;28;20116;-55
2023/11/13 06:23:10;;;;;;;1.88;1.20;;;19.70;41.80;;;;;;5038988;28;20100;-54
2023/11/13 06:25:36;;;;;;;1.90;1.15;;;19.70;41.80;;;;;;5008675;28;20120;-56
2023/11/13 06:28:02;;;;;;;2.03;1.30;;;19.70;41.90;;;;;;5044236;28;20075;-56
2023/11/13 06:30:28;;;;;;;2.75;1.48;;;19.70;41.90;;;;;;5020054;28;20513;-53
2023/11/13 06:32:54;;;;;;;2.20;1.40;;;19.70;41.90;;;;;;5035632;28;20131;-59
2023/11/13 06:35:21;;;;;;;1.95;1.40;;;19.70;42.00;;;;;;5034553;28;20033;-57
2023/11/13 06:37:47;;;;;;;1.98;1.30;;;19.60;42.00;;;;;;5037581;28;20030;-57
2023/11/13 06:40:16;;;;;;;2.67;1.40;;;19.60;42.00;;;;;;5033740;28;20321;-57
2023/11/13 06:42:50;;;;;;;2.10;1.52;;;19.60;42.60;;;;;;5030933;28;20029;-58
2023/11/13 06:45:16;;;;;;;1.70;1.30;;;19.60;42.10;;;;;;5036368;28;20032;-58
2023/11/13 06:47:44;;;;;;;1.52;1.17;;;19.70;42.20;;;;;;5043473;28;20158;-52
2023/11/13 06:50:10;;;;;;;2.30;1.40;;;19.60;42.20;;;;;;5037251;28;20021;-55
2023/11/13 06:52:36;;;;;;;2.30;1.42;;;19.60;42.20;;;;;;5032256;28;20356;-57
2023/11/13 06:55:02;;;;;;;2.78;1.65;;;19.60;42.20;;;;;;5013857;28;20040;-58
2023/11/13 06:57:28;;;;;;;1.92;1.50;;;19.60;42.30;;;;;;5033545;28;20391;-52
2023/11/13 06:59:54;;;;;;;2.67;1.60;;;19.60;42.30;;;;;;5030035;28;20040;-52
2023/11/13 07:02:21;;;;;;;2.80;1.45;;;19.60;42.30;;;;;;5032423;28;20029;-59
2023/11/13 07:04:50;;;;;;;2.85;1.58;;;19.60;42.40;;;;;;5032811;28;20549;-58
2023/11/13 07:07:16;;;;;;;2.08;1.65;;;19.60;42.40;;;;;;5029594;28;20032;-54
2023/11/13 07:09:41;;;;;;;2.58;1.58;;;19.60;42.50;;;;;;5033285;28;20025;-55
2023/11/13 07:12:08;;;;;;;2.55;1.55;;;19.60;42.50;;;;;;5030554;28;20087;-59
2023/11/13 07:14:34;;;;;;;1.80;1.60;;;19.60;42.50;;;;;;5033319;28;20123;-58
2023/11/13 07:17:00;;;;;;;4.45;1.70;;;19.60;42.60;;;;;;5031164;28;20025;-54
2023/11/13 07:19:26;;;;;;;2.95;1.92;;;19.60;42.60;;;;;;5031815;28;20379;-58
2023/11/13 07:21:52;;;;;;;2.08;1.42;;;19.60;42.70;;;;;;5035408;28;20045;-56
2023/11/13 07:24:18;;;;;;;2.00;1.27;;;19.60;42.70;;;;;;5035691;28;20417;-57
2023/11/13 07:26:44;;;;;;;2.05;1.27;;;19.60;42.70;;;;;;5046110;28;20029;-55
2023/11/13 07:29:11;;;;;;;2.42;1.52;;;19.60;42.80;;;;;;5031967;28;20039;-54
2023/11/13 07:31:37;;;;;;;2.35;1.77;;;19.60;42.90;;;;;;5018258;28;20036;-59
2023/11/13 07:34:03;;;;;;;1.70;1.38;;;19.60;42.90;;;;;;5028460;28;20032;-56
2023/11/13 07:36:31;;;;;;;2.35;1.50;;;19.60;42.90;;;;;;5031150;28;20083;-59
2023/11/13 07:38:58;;;;;;;2.67;1.70;;;19.60;43.00;;;;;;5034375;28;20561;-53
2023/11/13 07:41:23;;;;;;;1.95;1.63;;;19.60;43.10;;;;;;5030763;28;20030;-57
2023/11/13 07:43:50;;;;;;;1.88;1.38;;;19.60;43.10;;;;;;5046625;28;20087;-56
2023/11/13 07:46:17;;;;;;;3.60;1.80;;;19.60;43.10;;;;;;5030706;28;20047;-55
2023/11/13 07:48:44;;;;;;;2.35;1.77;;;19.60;43.20;;;;;;5031101;28;20091;-58
2023/11/13 07:51:10;;;;;;;1.80;1.48;;;19.60;43.30;;;;;;5035449;28;20029;-58
2023/11/13 07:53:36;;;;;;;2.10;1.60;;;19.60;43.30;;;;;;5033990;28;20025;-56
2023/11/13 07:56:03;;;;;;;2.85;1.70;;;19.60;43.40;;;;;;5030900;28;20444;-59
2023/11/13 07:58:29;;;;;;;2.20;1.70;;;19.60;43.40;;;;;;5030901;28;20038;-57
2023/11/13 08:00:55;;;;;;;1.60;1.17;;;19.60;43.50;;;;;;5034648;28;20025;-58
2023/11/13 08:03:25;;;;;;;2.30;1.58;;;19.60;43.60;;;;;;5029674;28;20516;-57
2023/11/13 08:05:51;;;;;;;2.80;1.70;;;19.60;43.60;;;;;;5028623;28;20033;-61
2023/11/13 08:08:17;;;;;;;3.13;1.50;;;19.60;43.70;;;;;;5010750;28;20130;-56
2023/11/13 08:10:46;;;;;;;2.53;1.77;;;19.60;43.70;;;;;;5030629;28;20479;-53
2023/11/13 08:13:14;;;;;;;2.17;1.45;;;19.60;43.80;;;;;;5038726;28;20056;-58
2023/11/13 08:15:42;;;;;;;2.08;1.38;;;19.60;43.90;;;;;;5036572;28;20068;-59
2023/11/13 08:18:14;;;;;;;3.85;1.70;;;19.60;44.50;;;;;;5030797;28;20037;-60
2023/11/13 08:20:44;;;;;;;2.75;1.48;;;19.60;44.00;;;;;;5014731;28;20037;-58
2023/11/13 08:23:14;;;;;;;1.90;1.30;;;19.70;44.10;;;;;;5017543;28;20025;-58
2023/11/13 08:25:44;;;;;;;1.33;1.05;;;19.70;44.10;;;;;;5036370;28;22474;-54
2023/11/13 08:28:11;;;;;;;2.78;1.50;;;19.70;44.10;;;;;;5033487;28;20160;-54
2023/11/13 08:30:41;;;;;;;1.83;1.23;;;19.70;44.10;;;;;;5036327;28;20037;-58
2023/11/13 08:33:08;;;;;;;1.10;0.93;;;19.70;44.10;;;;;;5046326;28;20041;-55
2023/11/13 08:35:34;;;;;;;1.55;0.93;;;19.70;44.20;;;;;;5026248;28;20367;-59
2023/11/13 08:38:00;;;;;;;1.88;1.17;;;19.80;44.90;;;;;;5039476;28;20037;-57
2023/11/13 08:40:29;;;;;;;2.33;0.95;;;19.80;44.30;;;;;;5039384;28;20521;-57
2023/11/13 08:42:56;;;;;;;1.85;1.05;;;19.80;44.30;;;;;;5039938;28;20025;-55
2023/11/13 08:45:24;;;;;;;1.50;1.08;;;19.80;44.30;;;;;;5039078;28;20465;-55
2023/11/13 08:47:53;;;;;;;1.73;1.13;;;19.90;44.40;;;;;;5037580;28;20076;-59
2023/11/13 08:50:21;;;;;;;2.08;1.05;;;19.90;44.40;;;;;;5031721;28;20348;-56
2023/11/13 08:52:48;;;;;;;2.28;1.10;;;19.90;44.40;;;;;;5038476;28;20067;-56
2023/11/13 08:55:18;;;;;;;1.88;1.10;;;20.00;44.50;;;;;;5025524;28;20045;-56
2023/11/13 08:57:45;;;;;;;1.38;0.90;;;20.00;44.50;;;;;;5038826;28;20037;-57
2023/11/13 09:00:20;;;;;;;1.70;1.00;;;20.00;44.50;;;;;;5035850;28;20025;-56
2023/11/13 09:02:53;;;;;;;1.98;1.17;;;20.00;44.50;;;;;;5031776;28;20099;-56
2023/11/13 09:05:26;;;;;;;1.80;1.00;;;20.10;44.60;;;;;;5015599;28;20099;-59
2023/11/13 09:07:56;;;;;;;1.23;0.70;;;20.10;44.60;;;;;;5033439;28;20087;-53
2023/11/13 09:10:26;;;;;;;1.73;0.90;;;20.10;44.70;;;;;;5036029;28;20099;-53
2023/11/13 09:12:59;;;;;;;1.48;0.85;;;20.10;44.60;;;;;;5031428;28;20064;-54
2023/11/13 09:15:32;;;;;;;2.22;0.60;;;20.10;44.70;;;;;;5015792;28;20374;-57
2023/11/13 09:18:01;;;;;;;2.33;0.80;;;20.20;44.80;;;;;;5034608;28;20321;-58
2023/11/13 09:20:27;;;;;;;1.45;0.80;;;20.20;44.80;;;;;;5032913;28;20033;-57
2023/11/13 09:22:54;;;;;;;1.30;0.80;;;20.20;44.80;;;;;;5029996;28;20034;-58
2023/11/13 09:25:21;;;;;;;1.77;1.00;;;20.20;44.90;;;;;;5035213;28;20033;-57
2023/11/13 09:27:50;;;;;;;1.23;0.80;;;20.30;45.00;;;;;;5017102;28;20112;-59
2023/11/13 09:30:21;;;;;;;1.17;0.82;;;20.30;45.00;;;;;;5035469;28;20516;-56
2023/11/13 09:32:50;;;;;;;1.73;0.75;;;20.30;45.00;;;;;;5035645;28;20029;-57
2023/11/13 09:35:18;;;;;;;1.10;0.80;;;20.30;45.10;;;;;;5035552;28;20040;-58
2023/11/13 09:37:52;;;;;;;1.98;0.90;;;20.30;45.80;;;;;;5036432;28;20029;-58
2023/11/13 09:40:21;;;;;;;2.35;0.85;;;20.30;45.20;;;;;;5022361;28;20029;-57
2023/11/13 09:43:03;;;;;;;2.20;1.00;;;20.30;45.20;;;;;;5038952;28;20033;-57
2023/11/13 09:45:29;;;;;;;1.38;0.80;;;20.30;45.30;;;;;;5035094;28;20416;-55
2023/11/13 09:47:59;;;;;;;1.10;0.68;;;20.30;45.40;;;;;;5035749;28;20104;-59
2023/11/13 09:50:25;;;;;;;2.35;1.08;;;20.40;45.50;;;;;;5035809;28;20116;-58
2023/11/13 09:52:59;;;;;;;2.28;1.05;;;20.30;45.50;;;;;;5016114;28;20408;-57
2023/11/13 09:55:26;;;;;;;2.03;0.80;;;20.30;45.60;;;;;;5034920;28;20048;-58
2023/11/13 09:57:53;;;;;;;2.70;1.00;;;20.30;45.70;;;;;;5019196;28;20120;-59
2023/11/13 10:00:23;;;;;;;2.92;0.93;;;20.40;45.80;;;;;;5035604;28;20425;-58
2023/11/13 10:02:54;;;;;;;1.95;0.98;;;20.30;45.80;;;;;;5017361;28;20029;-56
2023/11/13 10:05:26;;;;;;;1.67;0.80;;;20.40;45.90;;;;;;5035107;28;20075;-56
2023/11/13 10:07:52;;;;;;;3.10;0.85;;;20.30;45.90;;;;;;5031935;28;20411;-56
2023/11/13 10:10:23;;;;;;;1.20;0.70;;;20.30;45.90;;;;;;5017487;28;20356;-58
2023/11/13 10:12:54;;;;;;;1.88;0.70;;;20.30;45.90;;;;;;5035419;28;20121;-59
2023/11/13 10:15:24;;;;;;;4.07;0.93;;;20.30;46.00;;;;;;5042389;28;20037;-57
2023/11/13 10:17:53;;;;;;;2.38;1.02;;;20.30;46.10;;;;;;5034294;28;20119;-59
2023/11/13 10:20:20;;;;;;;1.38;0.85;;;20.30;46.20;;;;;;5051347;28;20025;-58
2023/11/13 10:23:03;;;;;;;1.58;0.80;;;20.30;46.30;;;;;;5018806;28;20384;-59
2023/11/13 10:25:55;;;;;;;2.25;0.75;;;20.30;46.30;;;;;;5036213;28;20029;-55
2023/11/13 10:28:42;;;;;;;1.30;0.70;;;20.30;46.30;;;;;;5024005;28;20064;-60
2023/11/13 10:31:12;;;;;;;1.00;0.50;;;20.30;46.30;;;;;;5025941;28;20028;-58
2023/11/13 10:33:39;;;;;;;1.63;0.60;;;20.30;46.40;;;;;;5044300;28;20034;-57
2023/11/13 10:36:15;;;;;;;2.33;0.70;;;20.30;46.50;;;;;;5032157;28;20033;-60
2023/11/13 10:38:45;;;;;;;0.82;0.50;;;20.30;46.50;;;;;;5040537;28;20509;-57
2023/11/13 10:41:12;;;;;;;1.27;0.68;;;20.30;46.60;;;;;;5044556;28;20035;-58
2023/11/13 10:43:39;;;;;;;1.65;0.70;;;20.30;46.60;;;;;;5049405;28;20332;-56
2023/11/13 10:46:09;;;;;;;1.10;0.55;;;20.30;46.70;;;;;;5047883;28;20068;-59
2023/11/13 10:48:42;;;;;;;1.73;0.55;;;20.30;46.70;;;;;;5025833;28;20032;-56
2023/11/13 10:51:09;;;;;;;1.10;0.60;;;20.30;46.70;;;;;;5047233;28;20032;-57
2023/11/13 10:53:39;;;;;;;0.77;0.50;;;20.30;46.70;;;;;;5043699;28;20033;-58
2023/11/13 10:56:08;;;;;;;1.83;0.60;;;20.30;46.80;;;;;;5044382;28;20040;-59
2023/11/13 10:58:34;;;;;;;1.08;0.47;;;20.30;46.80;;;;;;5047836;28;20025;-59
2023/11/13 11:01:03;;;;;;;1.02;0.47;;;20.30;46.80;;;;;;5047806;28;20032;-55
2023/11/13 11:03:32;;;;;;;0.60;0.50;;;20.40;46.90;;;;;;5044959;28;20086;-58
2023/11/13 11:06:09;;;;;;;1.25;0.47;;;20.30;46.90;;;;;;5040990;28;20114;-57
2023/11/13 11:08:37;;;;;;;1.05;0.50;;;20.40;46.90;;;;;;5033935;28;20037;-56
2023/11/13 11:11:04;;;;;;;1.55;0.65;;;20.30;46.90;;;;;;5024371;28;20033;-56
2023/11/13 11:13:33;;;;;;;0.55;0.40;;;20.30;46.90;;;;;;5030077;28;20041;-56
2023/11/13 11:16:14;;;;;;;0.85;0.43;;;20.40;47.00;;;;;;5046596;28;20049;-56
2023/11/13 11:19:05;;;;;;;1.05;0.57;;;20.40;47.00;;;;;;5030711;28;20053;-53
2023/11/13 11:21:40;;;;;;;0.70;0.47;;;20.40;47.00;;;;;;5019785;28;20048;-55
2023/11/13 11:24:30;;;;;;;0.98;0.50;;;20.40;47.00;;;;;;5048958;28;20827;-58
2023/11/13 11:27:00;;;;;;;1.15;0.52;;;20.40;47.10;;;;;;5040362;28;20427;-58
2023/11/13 11:29:36;;;;;;;0.80;0.40;;;20.40;47.10;;;;;;5043154;28;20025;-55
2023/11/13 11:32:14;;;;;;;1.02;0.50;;;20.40;47.20;;;;;;5042909;28;20029;-53
2023/11/13 11:34:42;;;;;;;0.40;0.30;;;20.40;47.20;;;;;;5036179;28;20048;-57
2023/11/13 11:37:13;;;;;;;0.63;0.35;;;20.40;47.20;;;;;;5046380;28;20381;-57
2023/11/13 11:39:50;;;;;;;1.38;0.43;;;20.40;47.20;;;;;;5046483;28;20120;-59
2023/11/13 11:42:27;;;;;;;1.00;0.40;;;20.40;47.30;;;;;;5048220;28;20028;-53
2023/11/13 11:44:57;;;;;;;1.02;0.30;;;20.40;47.30;;;;;;5042128;28;20025;-58
2023/11/13 11:47:27;;;;;;;0.85;0.32;;;20.40;47.30;;;;;;5042543;28;20035;-58
2023/11/13 11:49:58;;;;;;;0.77;0.35;;;20.50;47.40;;;;;;5026070;28;20060;-57
2023/11/13 11:52:51;;;;;;;0.63;0.30;;;20.40;47.30;;;;;;5044193;28;20017;-60
2023/11/13 11:55:30;;;;;;;0.93;0.28;;;20.40;47.30;;;;;;5026424;28;20057;-60
2023/11/13 11:57:56;;;;;;;0.43;0.30;;;20.50;47.40;;;;;;5045647;28;20029;-56
2023/11/13 12:00:23;;;;;;;0.40;0.30;;;20.50;47.40;;;;;;5044859;28;20365;-58
2023/11/13 12:02:51;;;;;;;0.73;0.30;;;20.50;47.50;;;;;;5028673;28;20060;-57
2023/11/13 12:05:19;;;;;;;0.77;0.32;;;20.50;47.50;;;;;;5028762;28;20029;-53
2023/11/13 12:07:47;;;;;;;0.70;0.32;;;20.60;47.60;;;;;;5041951;28;20108;-52
2023/11/13 12:10:13;;;;;;;0.40;0.40;;;20.60;47.60;;;;;;5048251;28;20025;-56
2023/11/13 12:12:44;;;;;;;0.93;0.40;;;20.60;47.60;;;;;;5043446;28;20031;-56
2023/11/13 12:15:11;;;;;;;0.93;0.30;;;20.60;47.70;;;;;;5036866;28;20052;-56
2023/11/13 12:17:41;;;;;;;0.68;0.40;;;20.60;47.70;;;;;;5029037;28;20529;-58
2023/11/13 12:20:10;;;;;;;0.68;0.30;;;20.60;47.70;;;;;;5056354;28;20025;-53
2023/11/13 12:22:40;;;;;;;0.90;0.40;;;20.60;47.70;;;;;;5045342;28;20026;-56
2023/11/13 12:25:12;;;;;;;0.40;0.30;;;20.60;47.80;;;;;;5032648;28;20053;-56
2023/11/13 12:27:39;;;;;;;0.63;0.40;;;20.60;47.80;;;;;;5038609;28;20032;-58
2023/11/13 12:30:16;;;;;;;0.68;0.50;;;20.60;47.90;;;;;;5029676;28;20033;-58
2023/11/13 12:32:52;;;;;;;1.40;0.52;;;20.60;47.90;;;;;;5034586;28;20029;-58
2023/11/13 12:35:20;;;;;;;1.00;0.30;;;20.60;48.10;;;;;;5047123;28;21562;-59
2023/11/13 12:37:50;;;;;;;0.50;0.30;;;20.60;48.10;;;;;;5047690;28;20021;-58
2023/11/13 12:40:18;;;;;;;1.65;0.70;;;20.70;48.30;;;;;;5048935;28;20589;-54
2023/11/13 12:42:44;;;;;;;1.10;0.65;;;20.70;49.10;;;;;;5049185;28;20024;-58
2023/11/13 12:45:16;;;;;;;1.13;0.40;;;20.70;48.50;;;;;;5045135;28;20040;-59
2023/11/13 12:48:06;;;;;;;0.77;0.45;;;20.70;48.70;;;;;;5031278;28;20025;-58
2023/11/13 12:50:32;;;;;;;0.73;0.55;;;20.70;48.80;;;;;;5031503;28;20034;-57
2023/11/13 12:52:58;;;;;;;1.15;0.60;;;20.70;48.90;;;;;;5034657;28;20025;-58